sensor_id;sensor_type;location;lat;lon;timestamp;temperature;humidity
77865;DHT22;67061;48.524;9.040;2023-08-01T00:00:30;16.60;94.90
77865;DHT22;67061;48.524;9.040;2023-08-01T00:02:57;16.60;95.20
77865;DHT22;67061;48.524;9.040;2023-08-01T00:05:24;16.60;95.50
77865;DHT22;67061;48.524;9.040;2023-08-01T00:07:51;16.50;96.60
77865;DHT22;67061;48.524;9.040;2023-08-01T00:10:18;16.50;96.70
77865;DHT22;67061;48.524;9.040;2023-08-01T00:12:45;16.50;97.70
77865;DHT22;67061;48.524;9.040;2023-08-01T00:15:12;16.50;97.80
77865;DHT22;67061;48.524;9.040;2023-08-01T00:17:40;16.40;98.50
77865;DHT22;67061;48.524;9.040;2023-08-01T00:20:08;16.30;99.10
77865;DHT22;67061;48.524;9.040;2023-08-01T00:22:35;16.30;99.00
77865;DHT22;67061;48.524;9.040;2023-08-01T00:25:02;16.30;99.40
77865;DHT22;67061;48.524;9.040;2023-08-01T00:27:29;16.30;98.80
77865;DHT22;67061;48.524;9.040;2023-08-01T00:29:57;16.20;99.90
77865;DHT22;67061;48.524;9.040;2023-08-01T00:32:24;16.20;99.90
77865;DHT22;67061;48.524;9.040;2023-08-01T00:34:52;16.20;99.90
77865;DHT22;67061;48.524;9.040;2023-08-01T00:37:19;16.20;99.90
77865;DHT22;67061;48.524;9.040;2023-08-01T00:39:46;16.20;99.90
77865;DHT22;67061;48.524;9.040;2023-08-01T00:42:13;16.10;99.90
77865;DHT22;67061;48.524;9.040;2023-08-01T00:44:40;16.20;99.90
77865;DHT22;67061;48.524;9.040;2023-08-01T00:47:07;16.20;99.90
77865;DHT22;67061;48.524;9.040;2023-08-01T00:49:34;16.20;99.90
77865;DHT22;67061;48.524;9.040;2023-08-01T00:52:03;16.20;99.90
77865;DHT22;67061;48.524;9.040;2023-08-01T00:54:31;16.20;99.90
77865;DHT22;67061;48.524;9.040;2023-08-01T00:57:02;16.20;99.90
77865;DHT22;67061;48.524;9.040;2023-08-01T00:59:29;16.20;99.90
77865;DHT22;67061;48.524;9.040;2023-08-01T01:01:56;16.30;99.90
77865;DHT22;67061;48.524;9.040;2023-08-01T01:04:23;16.30;99.90
77865;DHT22;67061;48.524;9.040;2023-08-01T01:06:55;16.30;99.90
77865;DHT22;67061;48.524;9.040;2023-08-01T01:09:29;16.40;99.90
77865;DHT22;67061;48.524;9.040;2023-08-01T01:11:57;16.40;99.90
77865;DHT22;67061;48.524;9.040;2023-08-01T01:14:24;16.30;99.90
77865;DHT22;67061;48.524;9.040;2023-08-01T01:16:51;16.40;99.90
77865;DHT22;67061;48.524;9.040;2023-08-01T01:19:18;16.40;99.90
77865;DHT22;67061;48.524;9.040;2023-08-01T01:21:47;16.40;99.90
77865;DHT22;67061;48.524;9.040;2023-08-01T01:24:16;16.30;99.90
77865;DHT22;67061;48.524;9.040;2023-08-01T01:26:45;16.30;99.90
77865;DHT22;67061;48.524;9.040;2023-08-01T01:29:12;16.20;99.90
77865;DHT22;67061;48.524;9.040;2023-08-01T01:31:40;16.30;99.90
77865;DHT22;67061;48.524;9.040;2023-08-01T01:34:08;16.20;99.90
77865;DHT22;67061;48.524;9.040;2023-08-01T01:36:35;16.20;99.90
77865;DHT22;67061;48.524;9.040;2023-08-01T01:39:03;16.20;99.90
77865;DHT22;67061;48.524;9.040;2023-08-01T01:41:30;16.20;99.90
77865;DHT22;67061;48.524;9.040;2023-08-01T01:43:57;16.30;99.90
77865;DHT22;67061;48.524;9.040;2023-08-01T01:46:24;16.30;99.90
77865;DHT22;67061;48.524;9.040;2023-08-01T01:48:51;16.20;99.90
77865;DHT22;67061;48.524;9.040;2023-08-01T01:51:17;16.20;99.90
77865;DHT22;67061;48.524;9.040;2023-08-01T01:53:44;16.20;99.90
77865;DHT22;67061;48.524;9.040;2023-08-01T01:56:12;16.20;99.90
77865;DHT22;67061;48.524;9.040;2023-08-01T01:58:39;16.20;99.90
77865;DHT22;67061;48.524;9.040;2023-08-01T02:01:06;16.20;99.90
77865;DHT22;67061;48.524;9.040;2023-08-01T02:03:32;16.20;99.90
77865;DHT22;67061;48.524;9.040;2023-08-01T02:05:59;16.20;99.90
77865;DHT22;67061;48.524;9.040;2023-08-01T02:08:26;16.30;99.90
77865;DHT22;67061;48.524;9.040;2023-08-01T02:10:53;16.30;99.90
77865;DHT22;67061;48.524;9.040;2023-08-01T02:13:22;16.30;99.90
77865;DHT22;67061;48.524;9.040;2023-08-01T02:15:49;16.40;99.90
77865;DHT22;67061;48.524;9.040;2023-08-01T02:18:15;16.30;99.90
77865;DHT22;67061;48.524;9.040;2023-08-01T02:20:42;16.20;99.90
77865;DHT22;67061;48.524;9.040;2023-08-01T02:23:09;16.30;99.90
77865;DHT22;67061;48.524;9.040;2023-08-01T02:25:38;16.20;99.90
77865;DHT22;67061;48.524;9.040;2023-08-01T02:28:05;16.20;99.90
77865;DHT22;67061;48.524;9.040;2023-08-01T02:30:33;16.20;99.90
77865;DHT22;67061;48.524;9.040;2023-08-01T02:33:00;16.20;99.90
77865;DHT22;67061;48.524;9.040;2023-08-01T02:35:28;16.20;99.90
77865;DHT22;67061;48.524;9.040;2023-08-01T02:37:55;16.30;99.90
77865;DHT22;67061;48.524;9.040;2023-08-01T02:40:22;16.30;99.90
77865;DHT22;67061;48.524;9.040;2023-08-01T02:42:49;16.30;99.90
77865;DHT22;67061;48.524;9.040;2023-08-01T02:45:16;16.30;99.90
77865;DHT22;67061;48.524;9.040;2023-08-01T02:47:44;16.30;99.90
77865;DHT22;67061;48.524;9.040;2023-08-01T02:50:11;16.40;99.90
77865;DHT22;67061;48.524;9.040;2023-08-01T02:52:38;16.30;99.90
77865;DHT22;67061;48.524;9.040;2023-08-01T02:55:06;16.30;99.90
77865;DHT22;67061;48.524;9.040;2023-08-01T02:57:33;16.30;99.90
77865;DHT22;67061;48.524;9.040;2023-08-01T03:00:00;16.30;99.90
77865;DHT22;67061;48.524;9.040;2023-08-01T03:02:30;16.30;99.90
77865;DHT22;67061;48.524;9.040;2023-08-01T03:04:58;16.40;99.90
77865;DHT22;67061;48.524;9.040;2023-08-01T03:07:25;16.40;99.90
77865;DHT22;67061;48.524;9.040;2023-08-01T03:09:52;16.40;99.90
77865;DHT22;67061;48.524;9.040;2023-08-01T03:12:19;16.40;99.90
77865;DHT22;67061;48.524;9.040;2023-08-01T03:14:45;16.40;99.90
77865;DHT22;67061;48.524;9.040;2023-08-01T03:17:13;16.40;99.90
77865;DHT22;67061;48.524;9.040;2023-08-01T03:19:40;16.40;99.40
77865;DHT22;67061;48.524;9.040;2023-08-01T03:22:09;16.50;98.20
77865;DHT22;67061;48.524;9.040;2023-08-01T03:24:36;16.50;98.00
77865;DHT22;67061;48.524;9.040;2023-08-01T03:27:03;16.60;97.30
77865;DHT22;67061;48.524;9.040;2023-08-01T03:29:30;16.70;95.50
77865;DHT22;67061;48.524;9.040;2023-08-01T03:32:06;16.80;95.90
77865;DHT22;67061;48.524;9.040;2023-08-01T03:34:33;16.80;93.20
77865;DHT22;67061;48.524;9.040;2023-08-01T03:37:00;17.00;92.50
77865;DHT22;67061;48.524;9.040;2023-08-01T03:39:28;17.20;89.70
77865;DHT22;67061;48.524;9.040;2023-08-01T03:41:55;17.50;86.40
77865;DHT22;67061;48.524;9.040;2023-08-01T03:44:22;17.70;84.30
77865;DHT22;67061;48.524;9.040;2023-08-01T03:46:49;17.90;83.40
77865;DHT22;67061;48.524;9.040;2023-08-01T03:49:15;18.00;81.80
77865;DHT22;67061;48.524;9.040;2023-08-01T03:51:43;18.00;81.60
77865;DHT22;67061;48.524;9.040;2023-08-01T03:54:10;18.10;83.00
77865;DHT22;67061;48.524;9.040;2023-08-01T03:56:39;18.10;81.70
77865;DHT22;67061;48.524;9.040;2023-08-01T03:59:08;18.10;80.50
77865;DHT22;67061;48.524;9.040;2023-08-01T04:01:35;18.30;80.50
77865;DHT22;67061;48.524;9.040;2023-08-01T04:04:02;18.30;79.90
77865;DHT22;67061;48.524;9.040;2023-08-01T04:06:29;18.30;80.00
77865;DHT22;67061;48.524;9.040;2023-08-01T04:08:56;18.40;78.40
77865;DHT22;67061;48.524;9.040;2023-08-01T04:11:23;18.40;78.20
77865;DHT22;67061;48.524;9.040;2023-08-01T04:13:51;18.50;77.80
77865;DHT22;67061;48.524;9.040;2023-08-01T04:16:19;18.50;78.50
77865;DHT22;67061;48.524;9.040;2023-08-01T04:18:46;18.50;78.00
77865;DHT22;67061;48.524;9.040;2023-08-01T04:21:13;18.50;79.20
77865;DHT22;67061;48.524;9.040;2023-08-01T04:23:40;18.40;80.20
77865;DHT22;67061;48.524;9.040;2023-08-01T04:26:07;18.30;79.10
77865;DHT22;67061;48.524;9.040;2023-08-01T04:28:34;18.40;78.00
77865;DHT22;67061;48.524;9.040;2023-08-01T04:31:03;18.50;78.20
77865;DHT22;67061;48.524;9.040;2023-08-01T04:33:30;18.40;78.30
77865;DHT22;67061;48.524;9.040;2023-08-01T04:35:56;18.40;78.60
77865;DHT22;67061;48.524;9.040;2023-08-01T04:38:23;18.40;78.90
77865;DHT22;67061;48.524;9.040;2023-08-01T04:40:50;18.40;79.10
77865;DHT22;67061;48.524;9.040;2023-08-01T04:43:17;18.40;80.70
77865;DHT22;67061;48.524;9.040;2023-08-01T04:45:44;18.30;79.00
77865;DHT22;67061;48.524;9.040;2023-08-01T04:48:13;18.30;79.90
77865;DHT22;67061;48.524;9.040;2023-08-01T04:50:40;18.20;80.50
77865;DHT22;67061;48.524;9.040;2023-08-01T04:53:06;18.20;80.20
77865;DHT22;67061;48.524;9.040;2023-08-01T04:55:33;18.10;79.30
77865;DHT22;67061;48.524;9.040;2023-08-01T04:58:00;18.10;81.20
77865;DHT22;67061;48.524;9.040;2023-08-01T05:00:27;18.10;80.30
77865;DHT22;67061;48.524;9.040;2023-08-01T05:02:54;18.10;80.40
77865;DHT22;67061;48.524;9.040;2023-08-01T05:05:22;18.00;78.80
77865;DHT22;67061;48.524;9.040;2023-08-01T05:07:49;18.10;78.80
77865;DHT22;67061;48.524;9.040;2023-08-01T05:10:16;18.00;79.70
77865;DHT22;67061;48.524;9.040;2023-08-01T05:12:43;18.10;79.00
77865;DHT22;67061;48.524;9.040;2023-08-01T05:15:10;18.20;78.70
77865;DHT22;67061;48.524;9.040;2023-08-01T05:17:38;18.20;78.70
77865;DHT22;67061;48.524;9.040;2023-08-01T05:20:06;18.20;77.60
77865;DHT22;67061;48.524;9.040;2023-08-01T05:22:35;18.40;75.30
77865;DHT22;67061;48.524;9.040;2023-08-01T05:25:01;18.40;76.00
77865;DHT22;67061;48.524;9.040;2023-08-01T05:27:30;18.40;77.80
77865;DHT22;67061;48.524;9.040;2023-08-01T05:29:57;18.40;74.20
77865;DHT22;67061;48.524;9.040;2023-08-01T05:32:24;18.60;73.70
77865;DHT22;67061;48.524;9.040;2023-08-01T05:34:50;18.50;74.90
77865;DHT22;67061;48.524;9.040;2023-08-01T05:37:17;18.60;73.40
77865;DHT22;67061;48.524;9.040;2023-08-01T05:39:46;18.70;72.70
77865;DHT22;67061;48.524;9.040;2023-08-01T05:42:12;18.80;71.80
77865;DHT22;67061;48.524;9.040;2023-08-01T05:44:39;18.90;71.00
77865;DHT22;67061;48.524;9.040;2023-08-01T05:47:06;18.90;71.00
77865;DHT22;67061;48.524;9.040;2023-08-01T05:49:33;19.00;72.00
77865;DHT22;67061;48.524;9.040;2023-08-01T05:52:00;18.90;71.20
77865;DHT22;67061;48.524;9.040;2023-08-01T05:54:27;18.90;72.50
77865;DHT22;67061;48.524;9.040;2023-08-01T05:56:55;18.90;72.70
77865;DHT22;67061;48.524;9.040;2023-08-01T05:59:22;18.90;72.00
77865;DHT22;67061;48.524;9.040;2023-08-01T06:01:49;18.90;72.70
77865;DHT22;67061;48.524;9.040;2023-08-01T06:04:16;18.90;71.50
77865;DHT22;67061;48.524;9.040;2023-08-01T06:06:43;18.90;72.20
77865;DHT22;67061;48.524;9.040;2023-08-01T06:09:10;18.90;71.00
77865;DHT22;67061;48.524;9.040;2023-08-01T06:11:37;18.80;71.60
77865;DHT22;67061;48.524;9.040;2023-08-01T06:14:05;18.80;72.30
77865;DHT22;67061;48.524;9.040;2023-08-01T06:16:32;18.70;72.10
77865;DHT22;67061;48.524;9.040;2023-08-01T06:18:59;18.80;71.60
77865;DHT22;67061;48.524;9.040;2023-08-01T06:21:26;18.80;72.70
77865;DHT22;67061;48.524;9.040;2023-08-01T06:23:53;18.70;72.40
77865;DHT22;67061;48.524;9.040;2023-08-01T06:26:20;18.70;72.80
77865;DHT22;67061;48.524;9.040;2023-08-01T06:28:46;18.70;72.40
77865;DHT22;67061;48.524;9.040;2023-08-01T06:31:15;18.80;71.50
77865;DHT22;67061;48.524;9.040;2023-08-01T06:33:42;18.80;71.50
77865;DHT22;67061;48.524;9.040;2023-08-01T06:36:09;18.80;72.20
77865;DHT22;67061;48.524;9.040;2023-08-01T06:38:36;18.80;71.50
77865;DHT22;67061;48.524;9.040;2023-08-01T06:41:03;18.70;72.10
77865;DHT22;67061;48.524;9.040;2023-08-01T06:43:29;18.70;72.10
77865;DHT22;67061;48.524;9.040;2023-08-01T06:45:56;18.60;72.30
77865;DHT22;67061;48.524;9.040;2023-08-01T06:48:25;18.70;72.30
77865;DHT22;67061;48.524;9.040;2023-08-01T06:50:52;18.60;72.70
77865;DHT22;67061;48.524;9.040;2023-08-01T06:53:18;18.60;72.70
77865;DHT22;67061;48.524;9.040;2023-08-01T06:55:45;18.60;72.80
77865;DHT22;67061;48.524;9.040;2023-08-01T06:58:13;18.70;73.00
77865;DHT22;67061;48.524;9.040;2023-08-01T07:00:39;18.70;72.80
77865;DHT22;67061;48.524;9.040;2023-08-01T07:03:06;18.70;73.30
77865;DHT22;67061;48.524;9.040;2023-08-01T07:05:35;18.70;72.20
77865;DHT22;67061;48.524;9.040;2023-08-01T07:08:01;18.70;72.70
77865;DHT22;67061;48.524;9.040;2023-08-01T07:10:29;18.70;73.40
77865;DHT22;67061;48.524;9.040;2023-08-01T07:12:56;18.70;73.80
77865;DHT22;67061;48.524;9.040;2023-08-01T07:15:23;18.80;73.20
77865;DHT22;67061;48.524;9.040;2023-08-01T07:17:50;18.80;73.80
77865;DHT22;67061;48.524;9.040;2023-08-01T07:20:16;18.80;73.70
77865;DHT22;67061;48.524;9.040;2023-08-01T07:22:46;18.80;73.20
77865;DHT22;67061;48.524;9.040;2023-08-01T07:25:13;18.90;72.90
77865;DHT22;67061;48.524;9.040;2023-08-01T07:27:41;18.90;72.80
77865;DHT22;67061;48.524;9.040;2023-08-01T07:30:08;18.80;72.80
77865;DHT22;67061;48.524;9.040;2023-08-01T07:32:35;18.80;73.30
77865;DHT22;67061;48.524;9.040;2023-08-01T07:35:04;18.80;73.30
77865;DHT22;67061;48.524;9.040;2023-08-01T07:37:33;18.80;73.80
77865;DHT22;67061;48.524;9.040;2023-08-01T07:40:01;18.80;74.70
77865;DHT22;67061;48.524;9.040;2023-08-01T07:42:28;18.80;74.00
77865;DHT22;67061;48.524;9.040;2023-08-01T07:44:55;18.70;74.30
77865;DHT22;67061;48.524;9.040;2023-08-01T07:47:22;18.60;74.80
77865;DHT22;67061;48.524;9.040;2023-08-01T07:49:49;18.50;74.80
77865;DHT22;67061;48.524;9.040;2023-08-01T07:52:16;18.50;75.60
77865;DHT22;67061;48.524;9.040;2023-08-01T07:54:43;18.40;77.40
77865;DHT22;67061;48.524;9.040;2023-08-01T07:57:11;18.20;80.20
77865;DHT22;67061;48.524;9.040;2023-08-01T07:59:38;18.00;83.40
77865;DHT22;67061;48.524;9.040;2023-08-01T08:02:05;17.80;84.10
77865;DHT22;67061;48.524;9.040;2023-08-01T08:04:32;17.50;86.60
77865;DHT22;67061;48.524;9.040;2023-08-01T08:06:59;17.20;89.70
77865;DHT22;67061;48.524;9.040;2023-08-01T08:09:26;17.00;91.00
77865;DHT22;67061;48.524;9.040;2023-08-01T08:11:53;16.80;91.10
77865;DHT22;67061;48.524;9.040;2023-08-01T08:14:24;16.60;93.40
77865;DHT22;67061;48.524;9.040;2023-08-01T08:16:51;16.50;93.40
77865;DHT22;67061;48.524;9.040;2023-08-01T08:19:18;16.40;95.90
77865;DHT22;67061;48.524;9.040;2023-08-01T08:21:44;16.40;96.90
77865;DHT22;67061;48.524;9.040;2023-08-01T08:24:11;16.30;97.50
77865;DHT22;67061;48.524;9.040;2023-08-01T08:26:38;16.30;98.10
77865;DHT22;67061;48.524;9.040;2023-08-01T08:29:05;16.30;98.50
77865;DHT22;67061;48.524;9.040;2023-08-01T08:31:33;16.30;99.00
77865;DHT22;67061;48.524;9.040;2023-08-01T08:34:01;16.30;98.20
77865;DHT22;67061;48.524;9.040;2023-08-01T08:36:28;16.30;98.20
77865;DHT22;67061;48.524;9.040;2023-08-01T08:38:55;16.30;98.20
77865;DHT22;67061;48.524;9.040;2023-08-01T08:41:23;16.40;99.30
77865;DHT22;67061;48.524;9.040;2023-08-01T08:43:54;16.30;99.10
77865;DHT22;67061;48.524;9.040;2023-08-01T08:46:23;16.20;99.90
77865;DHT22;67061;48.524;9.040;2023-08-01T08:48:55;16.20;99.90
77865;DHT22;67061;48.524;9.040;2023-08-01T08:51:23;16.20;99.90
77865;DHT22;67061;48.524;9.040;2023-08-01T08:53:53;16.20;99.90
77865;DHT22;67061;48.524;9.040;2023-08-01T08:56:20;16.10;99.90
77865;DHT22;67061;48.524;9.040;2023-08-01T08:58:48;16.20;99.90
77865;DHT22;67061;48.524;9.040;2023-08-01T09:01:16;16.20;99.90
77865;DHT22;67061;48.524;9.040;2023-08-01T09:03:43;16.20;99.90
77865;DHT22;67061;48.524;9.040;2023-08-01T09:06:15;16.20;99.90
77865;DHT22;67061;48.524;9.040;2023-08-01T09:08:49;16.30;99.90
77865;DHT22;67061;48.524;9.040;2023-08-01T09:11:17;16.40;99.90
77865;DHT22;67061;48.524;9.040;2023-08-01T09:13:44;16.40;99.90
77865;DHT22;67061;48.524;9.040;2023-08-01T09:16:12;16.40;99.90
77865;DHT22;67061;48.524;9.040;2023-08-01T09:18:47;16.40;99.90
77865;DHT22;67061;48.524;9.040;2023-08-01T09:21:17;16.50;99.90
77865;DHT22;67061;48.524;9.040;2023-08-01T09:23:44;16.60;99.90
77865;DHT22;67061;48.524;9.040;2023-08-01T09:26:13;16.80;99.90
77865;DHT22;67061;48.524;9.040;2023-08-01T09:28:40;17.00;99.90
77865;DHT22;67061;48.524;9.040;2023-08-01T09:31:07;17.00;99.90
77865;DHT22;67061;48.524;9.040;2023-08-01T09:33:40;17.20;99.90
77865;DHT22;67061;48.524;9.040;2023-08-01T09:36:08;17.20;99.90
77865;DHT22;67061;48.524;9.040;2023-08-01T09:38:37;17.10;99.80
77865;DHT22;67061;48.524;9.040;2023-08-01T09:41:04;17.00;99.90
77865;DHT22;67061;48.524;9.040;2023-08-01T09:43:34;17.00;99.60
77865;DHT22;67061;48.524;9.040;2023-08-01T09:46:02;17.00;99.90
77865;DHT22;67061;48.524;9.040;2023-08-01T09:48:30;17.00;99.90
77865;DHT22;67061;48.524;9.040;2023-08-01T09:51:05;17.00;99.90
77865;DHT22;67061;48.524;9.040;2023-08-01T09:53:32;17.10;99.90
77865;DHT22;67061;48.524;9.040;2023-08-01T09:56:01;17.10;99.90
77865;DHT22;67061;48.524;9.040;2023-08-01T09:58:32;17.10;99.90
77865;DHT22;67061;48.524;9.040;2023-08-01T10:01:00;17.00;98.60
77865;DHT22;67061;48.524;9.040;2023-08-01T10:03:27;17.00;99.20
77865;DHT22;67061;48.524;9.040;2023-08-01T10:05:55;17.00;99.20
77865;DHT22;67061;48.524;9.040;2023-08-01T10:08:22;17.00;99.90
77865;DHT22;67061;48.524;9.040;2023-08-01T10:10:49;17.00;99.90
77865;DHT22;67061;48.524;9.040;2023-08-01T10:13:19;16.90;99.90
77865;DHT22;67061;48.524;9.040;2023-08-01T10:15:47;16.80;99.90
77865;DHT22;67061;48.524;9.040;2023-08-01T10:18:15;16.70;99.90
77865;DHT22;67061;48.524;9.040;2023-08-01T10:20:43;16.70;99.90
77865;DHT22;67061;48.524;9.040;2023-08-01T10:23:11;16.70;99.90
77865;DHT22;67061;48.524;9.040;2023-08-01T10:25:39;16.70;99.90
77865;DHT22;67061;48.524;9.040;2023-08-01T10:28:06;16.80;99.90
77865;DHT22;67061;48.524;9.040;2023-08-01T10:30:34;16.80;99.90
77865;DHT22;67061;48.524;9.040;2023-08-01T10:33:01;16.90;99.90
77865;DHT22;67061;48.524;9.040;2023-08-01T10:35:33;16.90;99.90
77865;DHT22;67061;48.524;9.040;2023-08-01T10:38:07;17.00;99.90
77865;DHT22;67061;48.524;9.040;2023-08-01T10:40:35;17.20;99.90
77865;DHT22;67061;48.524;9.040;2023-08-01T10:43:02;17.50;99.90
77865;DHT22;67061;48.524;9.040;2023-08-01T10:45:29;17.80;99.90
77865;DHT22;67061;48.524;9.040;2023-08-01T10:48:08;18.00;99.90
77865;DHT22;67061;48.524;9.040;2023-08-01T10:50:35;18.10;99.10
77865;DHT22;67061;48.524;9.040;2023-08-01T10:53:04;18.30;99.90
77865;DHT22;67061;48.524;9.040;2023-08-01T10:55:45;18.20;98.70
77865;DHT22;67061;48.524;9.040;2023-08-01T10:58:12;18.40;99.90
77865;DHT22;67061;48.524;9.040;2023-08-01T11:00:41;18.40;97.80
77865;DHT22;67061;48.524;9.040;2023-08-01T11:03:10;18.40;99.00
77865;DHT22;67061;48.524;9.040;2023-08-01T11:05:37;18.40;98.40
77865;DHT22;67061;48.524;9.040;2023-08-01T11:08:04;18.40;97.50
77865;DHT22;67061;48.524;9.040;2023-08-01T11:10:32;18.40;97.50
77865;DHT22;67061;48.524;9.040;2023-08-01T11:12:59;18.50;95.90
77865;DHT22;67061;48.524;9.040;2023-08-01T11:15:26;18.60;97.30
77865;DHT22;67061;48.524;9.040;2023-08-01T11:17:55;18.70;94.80
77865;DHT22;67061;48.524;9.040;2023-08-01T11:20:25;19.00;95.90
77865;DHT22;67061;48.524;9.040;2023-08-01T11:22:55;19.40;93.00
77865;DHT22;67061;48.524;9.040;2023-08-01T11:25:33;19.60;91.60
77865;DHT22;67061;48.524;9.040;2023-08-01T11:28:05;19.60;86.70
77865;DHT22;67061;48.524;9.040;2023-08-01T11:30:33;19.50;88.20
77865;DHT22;67061;48.524;9.040;2023-08-01T11:33:00;19.50;87.20
77865;DHT22;67061;48.524;9.040;2023-08-01T11:35:31;19.50;86.30
77865;DHT22;67061;48.524;9.040;2023-08-01T11:37:58;19.40;83.70
77865;DHT22;67061;48.524;9.040;2023-08-01T11:40:25;19.40;81.40
77865;DHT22;67061;48.524;9.040;2023-08-01T11:42:56;19.30;79.60
77865;DHT22;67061;48.524;9.040;2023-08-01T11:45:24;19.30;77.00
77865;DHT22;67061;48.524;9.040;2023-08-01T11:47:51;19.40;78.90
77865;DHT22;67061;48.524;9.040;2023-08-01T11:50:21;19.80;78.70
77865;DHT22;67061;48.524;9.040;2023-08-01T11:52:50;20.30;75.90
77865;DHT22;67061;48.524;9.040;2023-08-01T11:55:21;20.30;73.90
77865;DHT22;67061;48.524;9.040;2023-08-01T11:57:55;20.20;73.00
77865;DHT22;67061;48.524;9.040;2023-08-01T12:00:23;20.60;72.30
77865;DHT22;67061;48.524;9.040;2023-08-01T12:03:02;20.90;69.30
77865;DHT22;67061;48.524;9.040;2023-08-01T12:05:30;20.70;70.50
77865;DHT22;67061;48.524;9.040;2023-08-01T12:08:08;20.60;69.30
77865;DHT22;67061;48.524;9.040;2023-08-01T12:10:37;20.60;68.70
77865;DHT22;67061;48.524;9.040;2023-08-01T12:13:04;20.50;68.40
77865;DHT22;67061;48.524;9.040;2023-08-01T12:15:31;20.50;68.80
77865;DHT22;67061;48.524;9.040;2023-08-01T12:17:58;20.50;69.60
77865;DHT22;67061;48.524;9.040;2023-08-01T12:20:25;20.50;70.40
77865;DHT22;67061;48.524;9.040;2023-08-01T12:22:52;20.40;68.50
77865;DHT22;67061;48.524;9.040;2023-08-01T12:25:20;20.40;70.20
77865;DHT22;67061;48.524;9.040;2023-08-01T12:27:47;20.70;69.00
77865;DHT22;67061;48.524;9.040;2023-08-01T12:30:14;21.40;68.20
77865;DHT22;67061;48.524;9.040;2023-08-01T12:32:41;22.10;65.50
77865;DHT22;67061;48.524;9.040;2023-08-01T12:35:08;22.50;62.50
77865;DHT22;67061;48.524;9.040;2023-08-01T12:37:35;22.70;60.30
77865;DHT22;67061;48.524;9.040;2023-08-01T12:40:03;22.90;61.70
77865;DHT22;67061;48.524;9.040;2023-08-01T12:42:31;22.70;60.50
77865;DHT22;67061;48.524;9.040;2023-08-01T12:44:58;22.30;60.70
77865;DHT22;67061;48.524;9.040;2023-08-01T12:47:25;21.90;61.00
77865;DHT22;67061;48.524;9.040;2023-08-01T12:49:52;21.70;61.80
77865;DHT22;67061;48.524;9.040;2023-08-01T12:52:23;21.50;63.80
77865;DHT22;67061;48.524;9.040;2023-08-01T12:54:50;21.30;64.10
77865;DHT22;67061;48.524;9.040;2023-08-01T12:57:17;21.10;63.70
77865;DHT22;67061;48.524;9.040;2023-08-01T12:59:46;21.00;63.70
77865;DHT22;67061;48.524;9.040;2023-08-01T13:02:14;21.00;63.60
77865;DHT22;67061;48.524;9.040;2023-08-01T13:04:40;21.30;62.20
77865;DHT22;67061;48.524;9.040;2023-08-01T13:07:07;21.50;62.30
77865;DHT22;67061;48.524;9.040;2023-08-01T13:09:34;21.90;60.10
77865;DHT22;67061;48.524;9.040;2023-08-01T13:12:03;22.10;59.20
77865;DHT22;67061;48.524;9.040;2023-08-01T13:14:31;22.30;58.80
77865;DHT22;67061;48.524;9.040;2023-08-01T13:17:00;22.70;57.50
77865;DHT22;67061;48.524;9.040;2023-08-01T13:19:27;22.80;57.10
77865;DHT22;67061;48.524;9.040;2023-08-01T13:21:54;23.20;57.00
77865;DHT22;67061;48.524;9.040;2023-08-01T13:24:20;23.20;56.40
77865;DHT22;67061;48.524;9.040;2023-08-01T13:26:47;23.10;54.70
77865;DHT22;67061;48.524;9.040;2023-08-01T13:29:14;22.80;56.30
77865;DHT22;67061;48.524;9.040;2023-08-01T13:31:41;22.50;54.60
77865;DHT22;67061;48.524;9.040;2023-08-01T13:34:10;22.50;56.90
77865;DHT22;67061;48.524;9.040;2023-08-01T13:36:37;22.70;55.50
77865;DHT22;67061;48.524;9.040;2023-08-01T13:39:03;22.70;54.40
77865;DHT22;67061;48.524;9.040;2023-08-01T13:41:32;22.50;54.30
77865;DHT22;67061;48.524;9.040;2023-08-01T13:43:58;22.10;53.70
77865;DHT22;67061;48.524;9.040;2023-08-01T13:46:25;22.10;56.00
77865;DHT22;67061;48.524;9.040;2023-08-01T13:48:52;22.10;56.50
77865;DHT22;67061;48.524;9.040;2023-08-01T13:51:21;22.40;56.60
77865;DHT22;67061;48.524;9.040;2023-08-01T13:53:47;22.60;54.30
77865;DHT22;67061;48.524;9.040;2023-08-01T13:56:14;22.40;55.80
77865;DHT22;67061;48.524;9.040;2023-08-01T13:58:41;22.50;54.40
77865;DHT22;67061;48.524;9.040;2023-08-01T14:01:09;22.30;54.60
77865;DHT22;67061;48.524;9.040;2023-08-01T14:03:37;22.30;55.90
77865;DHT22;67061;48.524;9.040;2023-08-01T14:06:05;22.60;54.60
77865;DHT22;67061;48.524;9.040;2023-08-01T14:08:34;22.90;52.20
77865;DHT22;67061;48.524;9.040;2023-08-01T14:11:03;22.80;53.60
77865;DHT22;67061;48.524;9.040;2023-08-01T14:13:30;22.80;53.10
77865;DHT22;67061;48.524;9.040;2023-08-01T14:15:57;22.60;53.00
77865;DHT22;67061;48.524;9.040;2023-08-01T14:18:24;22.30;54.60
77865;DHT22;67061;48.524;9.040;2023-08-01T14:20:51;22.20;55.00
77865;DHT22;67061;48.524;9.040;2023-08-01T14:23:18;22.10;55.70
77865;DHT22;67061;48.524;9.040;2023-08-01T14:25:47;22.00;54.30
77865;DHT22;67061;48.524;9.040;2023-08-01T14:28:13;22.00;54.00
77865;DHT22;67061;48.524;9.040;2023-08-01T14:30:40;22.00;53.90
77865;DHT22;67061;48.524;9.040;2023-08-01T14:33:08;22.00;55.00
77865;DHT22;67061;48.524;9.040;2023-08-01T14:35:36;22.00;55.50
77865;DHT22;67061;48.524;9.040;2023-08-01T14:38:03;22.10;56.20
77865;DHT22;67061;48.524;9.040;2023-08-01T14:40:30;22.10;55.40
77865;DHT22;67061;48.524;9.040;2023-08-01T14:42:58;22.20;56.20
77865;DHT22;67061;48.524;9.040;2023-08-01T14:45:25;22.20;56.40
77865;DHT22;67061;48.524;9.040;2023-08-01T14:47:52;22.50;56.60
77865;DHT22;67061;48.524;9.040;2023-08-01T14:50:19;22.90;55.40
77865;DHT22;67061;48.524;9.040;2023-08-01T14:52:46;22.90;53.80
77865;DHT22;67061;48.524;9.040;2023-08-01T14:55:13;22.80;55.60
77865;DHT22;67061;48.524;9.040;2023-08-01T14:57:40;22.80;55.60
77865;DHT22;67061;48.524;9.040;2023-08-01T15:00:09;22.90;56.00
77865;DHT22;67061;48.524;9.040;2023-08-01T15:02:36;23.20;53.90
77865;DHT22;67061;48.524;9.040;2023-08-01T15:05:03;23.20;53.10
77865;DHT22;67061;48.524;9.040;2023-08-01T15:07:30;23.00;53.80
77865;DHT22;67061;48.524;9.040;2023-08-01T15:09:57;22.70;54.50
77865;DHT22;67061;48.524;9.040;2023-08-01T15:12:24;22.40;55.90
77865;DHT22;67061;48.524;9.040;2023-08-01T15:14:52;22.20;57.30
77865;DHT22;67061;48.524;9.040;2023-08-01T15:17:20;22.10;56.30
77865;DHT22;67061;48.524;9.040;2023-08-01T15:19:47;22.00;56.80
77865;DHT22;67061;48.524;9.040;2023-08-01T15:22:14;21.90;57.70
77865;DHT22;67061;48.524;9.040;2023-08-01T15:24:41;21.80;58.50
77865;DHT22;67061;48.524;9.040;2023-08-01T15:27:08;21.70;58.70
77865;DHT22;67061;48.524;9.040;2023-08-01T15:29:35;21.50;59.20
77865;DHT22;67061;48.524;9.040;2023-08-01T15:32:02;21.50;59.10